sensor_id;sensor_type;location;lat;lon;timestamp;pressure;altitude;pressure_sealevel;temperature;humidity
25084;BME280;13075;55.682;37.564;2023-02-03T00:00:57;98774.50;;;4.44;100.00
25084;BME280;13075;55.682;37.564;2023-02-03T00:03:23;98779.16;;;4.05;100.00
25084;BME280;13075;55.682;37.564;2023-02-03T00:05:48;98775.69;;;4.41;100.00
25084;BME280;13075;55.682;37.564;2023-02-03T00:08:16;98777.88;;;4.38;100.00
25084;BME280;13075;55.682;37.564;2023-02-03T00:10:42;98769.31;;;4.36;100.00
25084;BME280;13075;55.682;37.564;2023-02-03T00:13:08;98777.69;;;4.25;100.00
25084;BME280;13075;55.682;37.564;2023-02-03T00:15:33;98775.25;;;4.53;100.00
25084;BME280;13075;55.682;37.564;2023-02-03T00:17:59;98776.50;;;4.27;100.00
25084;BME280;13075;55.682;37.564;2023-02-03T00:20:24;98777.13;;;4.29;100.00
25084;BME280;13075;55.682;37.564;2023-02-03T00:22:50;98772.34;;;4.10;100.00
25084;BME280;13075;55.682;37.564;2023-02-03T00:25:16;98779.47;;;4.10;100.00
25084;BME280;13075;55.682;37.564;2023-02-03T00:27:43;98773.28;;;4.17;100.00
25084;BME280;13075;55.682;37.564;2023-02-03T00:30:10;98769.31;;;4.51;100.00
25084;BME280;13075;55.682;37.564;2023-02-03T00:32:36;98765.69;;;4.52;100.00
25084;BME280;13075;55.682;37.564;2023-02-03T00:35:02;98773.72;;;4.44;100.00
25084;BME280;13075;55.682;37.564;2023-02-03T00:37:29;98761.66;;;4.56;100.00
25084;BME280;13075;55.682;37.564;2023-02-03T00:39:54;98776.13;;;4.82;100.00
25084;BME280;13075;55.682;37.564;2023-02-03T00:42:20;98778.50;;;4.25;100.00
25084;BME280;13075;55.682;37.564;2023-02-03T00:44:45;98774.41;;;4.37;100.00
25084;BME280;13075;55.682;37.564;2023-02-03T00:47:11;98776.81;;;4.10;100.00
25084;BME280;13075;55.682;37.564;2023-02-03T00:49:36;98775.81;;;3.88;100.00
25084;BME280;13075;55.682;37.564;2023-02-03T00:52:02;98774.69;;;4.05;100.00
25084;BME280;13075;55.682;37.564;2023-02-03T00:54:28;98776.97;;;4.31;100.00
25084;BME280;13075;55.682;37.564;2023-02-03T00:56:53;98774.75;;;4.20;100.00
25084;BME280;13075;55.682;37.564;2023-02-03T00:59:19;98768.84;;;4.32;100.00
25084;BME280;13075;55.682;37.564;2023-02-03T01:01:45;98770.28;;;3.98;100.00
25084;BME280;13075;55.682;37.564;2023-02-03T01:04:13;98774.19;;;4.62;100.00
25084;BME280;13075;55.682;37.564;2023-02-03T01:06:39;98773.16;;;4.48;100.00
25084;BME280;13075;55.682;37.564;2023-02-03T01:09:05;98772.44;;;4.17;100.00
25084;BME280;13075;55.682;37.564;2023-02-03T01:11:32;98778.16;;;4.06;100.00
25084;BME280;13075;55.682;37.564;2023-02-03T01:13:58;98777.25;;;4.36;100.00
25084;BME280;13075;55.682;37.564;2023-02-03T01:16:27;98758.72;;;4.51;100.00
25084;BME280;13075;55.682;37.564;2023-02-03T01:18:55;98767.44;;;4.22;100.00
25084;BME280;13075;55.682;37.564;2023-02-03T01:21:23;98762.13;;;4.59;100.00
25084;BME280;13075;55.682;37.564;2023-02-03T01:23:50;98758.25;;;4.47;100.00
25084;BME280;13075;55.682;37.564;2023-02-03T01:26:18;98762.69;;;4.69;100.00
25084;BME280;13075;55.682;37.564;2023-02-03T01:29:04;98752.69;;;4.42;100.00
25084;BME280;13075;55.682;37.564;2023-02-03T01:31:35;98761.59;;;4.64;100.00
25084;BME280;13075;55.682;37.564;2023-02-03T01:34:07;98762.06;;;4.30;100.00
25084;BME280;13075;55.682;37.564;2023-02-03T01:36:35;98756.16;;;4.57;100.00
25084;BME280;13075;55.682;37.564;2023-02-03T01:39:02;98756.88;;;4.36;100.00
25084;BME280;13075;55.682;37.564;2023-02-03T01:41:31;98757.25;;;4.33;100.00
25084;BME280;13075;55.682;37.564;2023-02-03T01:43:58;98750.44;;;4.97;100.00
25084;BME280;13075;55.682;37.564;2023-02-03T01:46:29;98749.91;;;4.87;100.00
25084;BME280;13075;55.682;37.564;2023-02-03T01:49:03;98752.16;;;4.76;100.00
25084;BME280;13075;55.682;37.564;2023-02-03T01:51:31;98753.84;;;4.77;100.00
25084;BME280;13075;55.682;37.564;2023-02-03T01:53:57;98759.00;;;4.56;100.00
25084;BME280;13075;55.682;37.564;2023-02-03T01:56:27;98751.16;;;4.48;100.00
25084;BME280;13075;55.682;37.564;2023-02-03T01:58:54;98753.63;;;4.12;100.00
25084;BME280;13075;55.682;37.564;2023-02-03T02:01:21;98753.75;;;3.96;100.00
25084;BME280;13075;55.682;37.564;2023-02-03T02:03:51;98754.97;;;4.45;100.00
25084;BME280;13075;55.682;37.564;2023-02-03T02:06:19;98757.19;;;4.71;100.00
25084;BME280;13075;55.682;37.564;2023-02-03T02:08:50;98746.25;;;4.74;100.00
25084;BME280;13075;55.682;37.564;2023-02-03T02:11:17;98754.06;;;4.38;100.00
25084;BME280;13075;55.682;37.564;2023-02-03T02:13:46;98747.50;;;4.63;100.00
25084;BME280;13075;55.682;37.564;2023-02-03T02:16:44;98740.28;;;4.57;100.00
25084;BME280;13075;55.682;37.564;2023-02-03T02:22:29;98754.56;;;4.19;100.00
25084;BME280;13075;55.682;37.564;2023-02-03T02:35:57;98745.78;;;4.70;100.00
25084;BME280;13075;55.682;37.564;2023-02-03T02:38:58;98744.38;;;4.60;100.00
25084;BME280;13075;55.682;37.564;2023-02-03T02:41:35;98747.16;;;4.52;100.00
25084;BME280;13075;55.682;37.564;2023-02-03T02:44:13;98748.97;;;4.66;100.00
25084;BME280;13075;55.682;37.564;2023-02-03T02:46:45;98743.13;;;4.41;100.00
25084;BME280;13075;55.682;37.564;2023-02-03T02:52:03;98731.19;;;4.74;100.00
25084;BME280;13075;55.682;37.564;2023-02-03T02:54:31;98742.56;;;4.46;100.00
25084;BME280;13075;55.682;37.564;2023-02-03T02:57:00;98743.53;;;4.30;100.00
25084;BME280;13075;55.682;37.564;2023-02-03T02:59:28;98746.25;;;4.22;100.00
25084;BME280;13075;55.682;37.564;2023-02-03T03:01:55;98734.97;;;4.43;100.00
25084;BME280;13075;55.682;37.564;2023-02-03T03:04:24;98737.00;;;4.40;100.00
25084;BME280;13075;55.682;37.564;2023-02-03T03:06:59;98747.03;;;4.45;100.00
25084;BME280;13075;55.682;37.564;2023-02-03T03:09:32;98739.31;;;4.21;100.00
25084;BME280;13075;55.682;37.564;2023-02-03T03:14:32;98744.94;;;4.40;100.00
25084;BME280;13075;55.682;37.564;2023-02-03T03:17:02;98747.66;;;4.47;100.00
25084;BME280;13075;55.682;37.564;2023-02-03T03:19:39;98750.44;;;4.16;100.00
25084;BME280;13075;55.682;37.564;2023-02-03T03:22:10;98741.47;;;4.55;100.00
25084;BME280;13075;55.682;37.564;2023-02-03T03:24:50;98739.38;;;4.50;100.00
25084;BME280;13075;55.682;37.564;2023-02-03T03:27:22;98746.59;;;4.56;100.00
25084;BME280;13075;55.682;37.564;2023-02-03T03:30:00;98742.03;;;4.79;100.00
25084;BME280;13075;55.682;37.564;2023-02-03T03:32:29;98735.72;;;4.80;100.00
25084;BME280;13075;55.682;37.564;2023-02-03T03:34:58;98743.47;;;4.67;100.00
25084;BME280;13075;55.682;37.564;2023-02-03T03:37:33;98738.56;;;4.79;100.00
25084;BME280;13075;55.682;37.564;2023-02-03T03:45:53;98741.03;;;4.66;100.00
25084;BME280;13075;55.682;37.564;2023-02-03T03:48:31;98736.66;;;4.87;100.00
25084;BME280;13075;55.682;37.564;2023-02-03T03:51:07;98740.13;;;5.02;100.00
25084;BME280;13075;55.682;37.564;2023-02-03T03:53:36;98736.75;;;4.79;100.00
25084;BME280;13075;55.682;37.564;2023-02-03T03:56:06;98728.66;;;5.17;100.00
25084;BME280;13075;55.682;37.564;2023-02-03T03:58:33;98740.31;;;4.72;100.00
25084;BME280;13075;55.682;37.564;2023-02-03T04:01:03;98741.84;;;4.81;100.00
25084;BME280;13075;55.682;37.564;2023-02-03T04:03:44;98741.19;;;4.93;100.00
25084;BME280;13075;55.682;37.564;2023-02-03T04:06:11;98740.47;;;4.99;100.00
25084;BME280;13075;55.682;37.564;2023-02-03T04:08:37;98741.94;;;4.58;100.00
25084;BME280;13075;55.682;37.564;2023-02-03T04:11:04;98736.94;;;4.92;100.00
25084;BME280;13075;55.682;37.564;2023-02-03T04:13:30;98744.94;;;4.55;100.00
25084;BME280;13075;55.682;37.564;2023-02-03T04:15:56;98749.81;;;4.66;100.00
25084;BME280;13075;55.682;37.564;2023-02-03T04:18:21;98747.66;;;4.47;100.00
25084;BME280;13075;55.682;37.564;2023-02-03T04:20:47;98743.22;;;4.91;100.00
25084;BME280;13075;55.682;37.564;2023-02-03T04:23:13;98739.94;;;4.89;100.00
25084;BME280;13075;55.682;37.564;2023-02-03T04:25:38;98737.56;;;4.94;100.00
25084;BME280;13075;55.682;37.564;2023-02-03T04:28:04;98729.84;;;5.14;100.00
25084;BME280;13075;55.682;37.564;2023-02-03T04:30:30;98745.88;;;4.77;100.00
25084;BME280;13075;55.682;37.564;2023-02-03T04:32:56;98746.78;;;4.84;100.00
25084;BME280;13075;55.682;37.564;2023-02-03T04:35:21;98744.50;;;4.66;100.00
25084;BME280;13075;55.682;37.564;2023-02-03T04:37:47;98737.81;;;4.99;100.00
25084;BME280;13075;55.682;37.564;2023-02-03T04:40:12;98741.31;;;5.00;100.00
25084;BME280;13075;55.682;37.564;2023-02-03T04:42:39;98744.03;;;4.92;100.00
25084;BME280;13075;55.682;37.564;2023-02-03T04:45:06;98755.69;;;4.39;100.00
25084;BME280;13075;55.682;37.564;2023-02-03T04:47:32;98754.91;;;4.68;100.00
25084;BME280;13075;55.682;37.564;2023-02-03T04:49:58;98741.41;;;4.92;100.00
25084;BME280;13075;55.682;37.564;2023-02-03T04:52:24;98745.50;;;4.94;100.00
25084;BME280;13075;55.682;37.564;2023-02-03T04:54:50;98745.78;;;4.85;100.00
25084;BME280;13075;55.682;37.564;2023-02-03T04:57:17;98740.75;;;5.04;100.00
25084;BME280;13075;55.682;37.564;2023-02-03T04:59:43;98736.28;;;5.05;100.00
25084;BME280;13075;55.682;37.564;2023-02-03T05:02:08;98744.94;;;4.99;100.00
25084;BME280;13075;55.682;37.564;2023-02-03T05:04:34;98740.19;;;5.24;100.00
25084;BME280;13075;55.682;37.564;2023-02-03T05:07:00;98745.84;;;5.21;100.00
25084;BME280;13075;55.682;37.564;2023-02-03T05:09:26;98742.00;;;5.23;100.00
25084;BME280;13075;55.682;37.564;2023-02-03T05:11:52;98746.69;;;5.07;100.00
25084;BME280;13075;55.682;37.564;2023-02-03T05:14:18;98741.31;;;5.00;100.00
25084;BME280;13075;55.682;37.564;2023-02-03T05:16:44;98756.38;;;4.70;100.00
25084;BME280;13075;55.682;37.564;2023-02-03T05:19:10;98745.50;;;4.94;100.00
25084;BME280;13075;55.682;37.564;2023-02-03T05:21:35;98745.69;;;5.08;100.00
25084;BME280;13075;55.682;37.564;2023-02-03T05:24:01;98744.78;;;4.86;100.00
25084;BME280;13075;55.682;37.564;2023-02-03T05:26:28;98743.41;;;5.04;100.00
25084;BME280;13075;55.682;37.564;2023-02-03T05:28:53;98743.31;;;4.98;100.00
25084;BME280;13075;55.682;37.564;2023-02-03T05:31:19;98735.59;;;5.18;100.00
25084;BME280;13075;55.682;37.564;2023-02-03T05:33:44;98747.22;;;5.17;100.00
25084;BME280;13075;55.682;37.564;2023-02-03T05:36:10;98742.94;;;5.01;100.00
25084;BME280;13075;55.682;37.564;2023-02-03T05:38:36;98742.72;;;5.17;100.00
25084;BME280;13075;55.682;37.564;2023-02-03T05:41:01;98747.06;;;4.89;100.00
25084;BME280;13075;55.682;37.564;2023-02-03T05:43:45;98748.81;;;5.32;100.00
25084;BME280;13075;55.682;37.564;2023-02-03T05:46:11;98757.63;;;5.03;100.00
25084;BME280;13075;55.682;37.564;2023-02-03T05:48:36;98753.72;;;4.99;100.00
25084;BME280;13075;55.682;37.564;2023-02-03T05:51:02;98749.97;;;5.09;100.00
25084;BME280;13075;55.682;37.564;2023-02-03T05:53:27;98754.00;;;5.04;100.00
25084;BME280;13075;55.682;37.564;2023-02-03T05:55:53;98752.25;;;5.12;100.00
25084;BME280;13075;55.682;37.564;2023-02-03T05:58:19;98759.50;;;4.74;100.00
25084;BME280;13075;55.682;37.564;2023-02-03T06:00:45;98762.13;;;4.88;100.00
25084;BME280;13075;55.682;37.564;2023-02-03T06:03:11;98754.06;;;5.11;100.00
25084;BME280;13075;55.682;37.564;2023-02-03T06:05:37;98757.72;;;5.25;100.00
25084;BME280;13075;55.682;37.564;2023-02-03T06:08:06;98754.03;;;5.40;100.00
25084;BME280;13075;55.682;37.564;2023-02-03T06:10:32;98753.50;;;5.30;100.00
25084;BME280;13075;55.682;37.564;2023-02-03T06:12:58;98759.63;;;5.31;100.00
25084;BME280;13075;55.682;37.564;2023-02-03T06:15:24;98752.34;;;5.18;100.00
25084;BME280;13075;55.682;37.564;2023-02-03T06:17:50;98757.75;;;5.10;100.00
25084;BME280;13075;55.682;37.564;2023-02-03T06:20:17;98764.22;;;5.22;100.00
25084;BME280;13075;55.682;37.564;2023-02-03T06:22:44;98765.19;;;5.36;100.00
25084;BME280;13075;55.682;37.564;2023-02-03T06:25:10;98757.06;;;5.37;100.00
25084;BME280;13075;55.682;37.564;2023-02-03T06:27:36;98765.31;;;5.63;100.00
25084;BME280;13075;55.682;37.564;2023-02-03T06:30:02;98769.28;;;5.53;100.00
25084;BME280;13075;55.682;37.564;2023-02-03T06:32:28;98766.03;;;5.22;100.00
25084;BME280;13075;55.682;37.564;2023-02-03T06:34:53;98753.91;;;5.13;100.00
25084;BME280;13075;55.682;37.564;2023-02-03T06:37:19;98758.88;;;5.37;100.00
25084;BME280;13075;55.682;37.564;2023-02-03T06:39:45;98756.91;;;5.81;100.00
25084;BME280;13075;55.682;37.564;2023-02-03T06:42:10;98764.00;;;5.38;100.00
25084;BME280;13075;55.682;37.564;2023-02-03T06:44:36;98755.97;;;5.32;100.00
25084;BME280;13075;55.682;37.564;2023-02-03T06:47:01;98763.78;;;5.54;100.00
25084;BME280;13075;55.682;37.564;2023-02-03T06:49:28;98763.13;;;5.67;100.00
25084;BME280;13075;55.682;37.564;2023-02-03T06:51:54;98758.97;;;5.43;100.00
25084;BME280;13075;55.682;37.564;2023-02-03T06:54:19;98770.78;;;5.41;100.00
25084;BME280;13075;55.682;37.564;2023-02-03T06:56:45;98759.66;;;5.16;100.00
25084;BME280;13075;55.682;37.564;2023-02-03T06:59:12;98766.72;;;5.45;100.00
25084;BME280;13075;55.682;37.564;2023-02-03T07:01:37;98761.34;;;5.38;100.00
25084;BME280;13075;55.682;37.564;2023-02-03T07:04:04;98748.66;;;5.70;100.00
25084;BME280;13075;55.682;37.564;2023-02-03T07:06:30;98752.56;;;5.74;100.00
25084;BME280;13075;55.682;37.564;2023-02-03T07:09:00;98753.59;;;5.58;100.00
25084;BME280;13075;55.682;37.564;2023-02-03T07:11:26;98756.72;;;5.61;100.00
25084;BME280;13075;55.682;37.564;2023-02-03T07:13:52;98753.84;;;5.78;100.00
25084;BME280;13075;55.682;37.564;2023-02-03T07:16:18;98758.09;;;5.57;100.00
25084;BME280;13075;55.682;37.564;2023-02-03T07:18:44;98761.03;;;5.12;100.00
25084;BME280;13075;55.682;37.564;2023-02-03T07:21:11;98766.78;;;5.01;100.00
25084;BME280;13075;55.682;37.564;2023-02-03T07:23:36;98768.16;;;5.26;100.00
25084;BME280;13075;55.682;37.564;2023-02-03T07:26:03;98763.38;;;5.36;100.00
25084;BME280;13075;55.682;37.564;2023-02-03T07:28:31;98767.88;;;5.21;100.00
25084;BME280;13075;55.682;37.564;2023-02-03T07:30:57;98770.31;;;5.37;100.00
25084;BME280;13075;55.682;37.564;2023-02-03T07:33:22;98763.97;;;5.53;100.00
25084;BME280;13075;55.682;37.564;2023-02-03T07:35:56;98757.28;;;5.93;100.00
25084;BME280;13075;55.682;37.564;2023-02-03T07:38:24;98757.88;;;5.74;100.00
25084;BME280;13075;55.682;37.564;2023-02-03T07:40:50;98765.66;;;5.39;100.00
25084;BME280;13075;55.682;37.564;2023-02-03T07:43:16;98759.94;;;5.78;100.00
25084;BME280;13075;55.682;37.564;2023-02-03T07:45:41;98748.13;;;5.59;100.00
25084;BME280;13075;55.682;37.564;2023-02-03T07:48:07;98756.72;;;5.97;100.00
25084;BME280;13075;55.682;37.564;2023-02-03T07:50:33;98754.63;;;5.93;100.00
25084;BME280;13075;55.682;37.564;2023-02-03T07:52:59;98758.06;;;5.72;100.00
25084;BME280;13075;55.682;37.564;2023-02-03T07:55:25;98757.59;;;5.68;100.00
25084;BME280;13075;55.682;37.564;2023-02-03T07:57:56;98760.09;;;5.70;100.00
25084;BME280;13075;55.682;37.564;2023-02-03T08:00:22;98753.75;;;5.86;100.00
25084;BME280;13075;55.682;37.564;2023-02-03T08:02:48;98752.84;;;5.43;100.00
25084;BME280;13075;55.682;37.564;2023-02-03T08:05:14;98758.94;;;5.79;100.00
25084;BME280;13075;55.682;37.564;2023-02-03T08:07:41;98744.25;;;5.98;100.00
25084;BME280;13075;55.682;37.564;2023-02-03T08:10:09;98745.84;;;6.13;100.00
25084;BME280;13075;55.682;37.564;2023-02-03T08:12:35;98739.78;;;5.98;100.00
25084;BME280;13075;55.682;37.564;2023-02-03T08:15:00;98736.06;;;5.78;100.00
25084;BME280;13075;55.682;37.564;2023-02-03T08:17:26;98749.66;;;5.68;100.00
25084;BME280;13075;55.682;37.564;2023-02-03T08:19:52;98750.69;;;5.89;100.00
25084;BME280;13075;55.682;37.564;2023-02-03T08:22:17;98746.25;;;5.75;100.00
25084;BME280;13075;55.682;37.564;2023-02-03T08:24:45;98743.50;;;6.04;100.00
25084;BME280;13075;55.682;37.564;2023-02-03T08:27:16;98744.63;;;5.95;100.00
25084;BME280;13075;55.682;37.564;2023-02-03T08:29:43;98744.59;;;5.88;100.00
25084;BME280;13075;55.682;37.564;2023-02-03T08:32:14;98734.34;;;6.06;100.00
25084;BME280;13075;55.682;37.564;2023-02-03T08:34:39;98736.34;;;6.04;100.00
25084;BME280;13075;55.682;37.564;2023-02-03T08:37:05;98742.44;;;5.84;100.00
25084;BME280;13075;55.682;37.564;2023-02-03T08:39:32;98742.19;;;5.79;100.00
25084;BME280;13075;55.682;37.564;2023-02-03T08:41:58;98729.66;;;6.08;100.00
25084;BME280;13075;55.682;37.564;2023-02-03T08:44:24;98726.31;;;6.27;100.00
25084;BME280;13075;55.682;37.564;2023-02-03T08:46:50;98744.81;;;5.57;100.00
25084;BME280;13075;55.682;37.564;2023-02-03T08:49:16;98742.44;;;5.84;100.00
25084;BME280;13075;55.682;37.564;2023-02-03T08:51:44;98731.84;;;6.05;100.00
25084;BME280;13075;55.682;37.564;2023-02-03T08:54:10;98737.00;;;5.85;100.00
25084;BME280;13075;55.682;37.564;2023-02-03T08:56:35;98726.88;;;6.16;100.00
25084;BME280;13075;55.682;37.564;2023-02-03T08:59:01;98737.44;;;5.89;100.00
25084;BME280;13075;55.682;37.564;2023-02-03T09:01:27;98735.72;;;6.02;100.00
25084;BME280;13075;55.682;37.564;2023-02-03T09:03:53;98734.84;;;6.44;100.00
25084;BME280;13075;55.682;37.564;2023-02-03T09:06:18;98739.94;;;6.18;100.00
25084;BME280;13075;55.682;37.564;2023-02-03T09:08:45;98737.78;;;6.56;100.00
25084;BME280;13075;55.682;37.564;2023-02-03T09:11:12;98720.75;;;5.95;100.00
25084;BME280;13075;55.682;37.564;2023-02-03T09:13:39;98733.97;;;5.88;100.00
25084;BME280;13075;55.682;37.564;2023-02-03T09:16:06;98734.09;;;5.44;100.00
25084;BME280;13075;55.682;37.564;2023-02-03T09:18:32;98735.81;;;5.88;100.00
25084;BME280;13075;55.682;37.564;2023-02-03T09:21:07;98733.56;;;5.70;100.00
25084;BME280;13075;55.682;37.564;2023-02-03T09:23:33;98716.78;;;6.33;100.00
25084;BME280;13075;55.682;37.564;2023-02-03T09:26:03;98717.69;;;6.47;100.00
25084;BME280;13075;55.682;37.564;2023-02-03T09:28:28;98721.75;;;6.77;100.00
25084;BME280;13075;55.682;37.564;2023-02-03T09:30:59;98739.41;;;6.57;100.00
25084;BME280;13075;55.682;37.564;2023-02-03T09:33:24;98724.88;;;6.25;100.00
25084;BME280;13075;55.682;37.564;2023-02-03T09:35:51;98719.88;;;6.37;100.00
25084;BME280;13075;55.682;37.564;2023-02-03T09:38:17;98724.41;;;6.77;100.00
25084;BME280;13075;55.682;37.564;2023-02-03T09:40:43;98720.22;;;6.89;100.00
25084;BME280;13075;55.682;37.564;2023-02-03T09:43:28;98721.69;;;6.98;100.00
25084;BME280;13075;55.682;37.564;2023-02-03T09:46:08;98716.13;;;6.93;100.00
25084;BME280;13075;55.682;37.564;2023-02-03T09:48:40;98713.03;;;6.89;100.00
25084;BME280;13075;55.682;37.564;2023-02-03T09:51:18;98715.91;;;6.26;100.00
25084;BME280;13075;55.682;37.564;2023-02-03T09:53:49;98726.03;;;6.16;100.00
25084;BME280;13075;55.682;37.564;2023-02-03T09:56:31;98718.84;;;6.38;100.00
25084;BME280;13075;55.682;37.564;2023-02-03T09:58:58;98721.44;;;6.59;100.00
25084;BME280;13075;55.682;37.564;2023-02-03T10:06:57;98721.53;;;6.72;100.00
25084;BME280;13075;55.682;37.564;2023-02-03T10:17:40;98713.84;;;6.83;100.00
25084;BME280;13075;55.682;37.564;2023-02-03T10:22:38;98708.66;;;7.16;100.00
25084;BME280;13075;55.682;37.564;2023-02-03T10:25:19;98707.31;;;7.46;100.00
25084;BME280;13075;55.682;37.564;2023-02-03T10:27:50;98714.94;;;7.56;100.00
25084;BME280;13075;55.682;37.564;2023-02-03T10:30:30;98699.16;;;7.54;100.00
25084;BME280;13075;55.682;37.564;2023-02-03T10:33:10;98710.16;;;7.38;100.00
25084;BME280;13075;55.682;37.564;2023-02-03T10:35:47;98705.09;;;6.96;100.00
25084;BME280;13075;55.682;37.564;2023-02-03T10:39:09;98706.91;;;6.89;100.00
25084;BME280;13075;55.682;37.564;2023-02-03T10:41:04;98699.47;;;7.19;100.00
25084;BME280;13075;55.682;37.564;2023-02-03T10:43:31;98704.28;;;7.02;100.00
25084;BME280;13075;55.682;37.564;2023-02-03T10:46:19;98706.56;;;6.99;100.00
25084;BME280;13075;55.682;37.564;2023-02-03T10:48:45;98711.59;;;6.25;100.00
25084;BME280;13075;55.682;37.564;2023-02-03T10:51:21;98709.28;;;6.15;100.00
25084;BME280;13075;55.682;37.564;2023-02-03T10:53:47;98703.59;;;6.80;100.00
25084;BME280;13075;55.682;37.564;2023-02-03T10:56:20;98699.09;;;6.81;100.00
25084;BME280;13075;55.682;37.564;2023-02-03T10:58:51;98699.75;;;7.37;100.00
25084;BME280;13075;55.682;37.564;2023-02-03T11:01:19;98696.78;;;7.12;100.00
25084;BME280;13075;55.682;37.564;2023-02-03T11:04:00;98698.78;;;6.63;100.00
25084;BME280;13075;55.682;37.564;2023-02-03T11:06:27;98697.16;;;6.62;100.00
25084;BME280;13075;55.682;37.564;2023-02-03T11:08:54;98693.34;;;6.43;100.00
25084;BME280;13075;55.682;37.564;2023-02-03T11:16:24;98695.31;;;6.62;100.00
25084;BME280;13075;55.682;37.564;2023-02-03T11:26:21;98687.47;;;6.88;100.00
25084;BME280;13075;55.682;37.564;2023-02-03T11:28:49;98684.84;;;6.95;100.00
25084;BME280;13075;55.682;37.564;2023-02-03T11:31:38;98677.94;;;7.07;100.00
25084;BME280;13075;55.682;37.564;2023-02-03T11:34:15;98683.13;;;7.22;100.00
25084;BME280;13075;55.682;37.564;2023-02-03T11:36:41;98683.72;;;7.17;100.00
25084;BME280;13075;55.682;37.564;2023-02-03T11:39:30;98687.00;;;7.26;100.00
25084;BME280;13075;55.682;37.564;2023-02-03T11:42:00;98674.47;;;7.07;100.00
25084;BME280;13075;55.682;37.564;2023-02-03T11:44:28;98682.72;;;7.31;100.00
25084;BME280;13075;55.682;37.564;2023-02-03T11:47:06;98678.00;;;7.27;100.00
25084;BME280;13075;55.682;37.564;2023-02-03T11:58:16;98674.31;;;7.15;100.00
25084;BME280;13075;55.682;37.564;2023-02-03T12:08:36;98673.13;;;7.37;100.00
25084;BME280;13075;55.682;37.564;2023-02-03T12:11:29;98668.81;;;7.36;100.00
25084;BME280;13075;55.682;37.564;2023-02-03T12:19:22;98660.22;;;7.27;100.00
25084;BME280;13075;55.682;37.564;2023-02-03T12:27:44;98665.31;;;7.22;100.00
25084;BME280;13075;55.682;37.564;2023-02-03T12:30:34;98666.34;;;7.21;100.00
25084;BME280;13075;55.682;37.564;2023-02-03T12:33:25;98670.94;;;7.00;100.00
25084;BME280;13075;55.682;37.564;2023-02-03T12:36:08;98668.03;;;6.47;100.00
25084;BME280;13075;55.682;37.564;2023-02-03T12:38:41;98663.50;;;6.82;100.00
25084;BME280;13075;55.682;37.564;2023-02-03T12:41:15;98662.81;;;7.08;100.00
25084;BME280;13075;55.682;37.564;2023-02-03T12:43:49;98666.56;;;7.26;100.00
25084;BME280;13075;55.682;37.564;2023-02-03T12:46:21;98658.63;;;7.52;100.00
25084;BME280;13075;55.682;37.564;2023-02-03T12:52:13;98672.06;;;6.71;100.00
25084;BME280;13075;55.682;37.564;2023-02-03T12:57:38;98661.38;;;6.58;100.00
25084;BME280;13075;55.682;37.564;2023-02-03T13:06:33;98664.41;;;6.96;100.00
25084;BME280;13075;55.682;37.564;2023-02-03T13:14:40;98665.41;;;6.88;100.00
25084;BME280;13075;55.682;37.564;2023-02-03T13:17:17;98661.59;;;6.63;100.00
25084;BME280;13075;55.682;37.564;2023-02-03T13:19:49;98658.78;;;6.77;100.00
25084;BME280;13075;55.682;37.564;2023-02-03T13:22:16;98659.91;;;6.55;100.00
25084;BME280;13075;55.682;37.564;2023-02-03T13:24:47;98657.75;;;6.72;100.00
25084;BME280;13075;55.682;37.564;2023-02-03T13:27:25;98672.59;;;6.25;100.00
25084;BME280;13075;55.682;37.564;2023-02-03T13:38:06;98674.66;;;5.81;100.00
25084;BME280;13075;55.682;37.564;2023-02-03T13:41:29;98672.09;;;6.15;100.00
25084;BME280;13075;55.682;37.564;2023-02-03T13:43:48;98675.84;;;6.21;100.00
25084;BME280;13075;55.682;37.564;2023-02-03T13:46:30;98670.41;;;6.08;100.00
25084;BME280;13075;55.682;37.564;2023-02-03T13:48:59;98681.63;;;5.61;100.00
25084;BME280;13075;55.682;37.564;2023-02-03T13:51:29;98676.38;;;5.89;100.00
25084;BME280;13075;55.682;37.564;2023-02-03T13:54:15;98672.34;;;6.20;100.00
25084;BME280;13075;55.682;37.564;2023-02-03T13:56:59;98674.09;;;6.35;100.00
25084;BME280;13075;55.682;37.564;2023-02-03T13:59:40;98668.06;;;6.54;100.00
25084;BME280;13075;55.682;37.564;2023-02-03T14:07:38;98678.06;;;5.96;100.00
25084;BME280;13075;55.682;37.564;2023-02-03T14:23:15;98695.72;;;5.26;100.00
25084;BME280;13075;55.682;37.564;2023-02-03T14:25:51;98681.94;;;5.73;100.00
25084;BME280;13075;55.682;37.564;2023-02-03T14:28:29;98679.41;;;5.64;100.00
25084;BME280;13075;55.682;37.564;2023-02-03T14:34:44;98686.75;;;5.62;100.00
25084;BME280;13075;55.682;37.564;2023-02-03T14:36:52;98678.06;;;5.96;100.00
25084;BME280;13075;55.682;37.564;2023-02-03T14:44:41;98683.03;;;5.42;100.00
25084;BME280;13075;55.682;37.564;2023-02-03T14:47:16;98685.28;;;5.60;100.00
25084;BME280;13075;55.682;37.564;2023-02-03T14:53:03;98681.88;;;5.87;100.00
25084;BME280;13075;55.682;37.564;2023-02-03T14:55:49;98680.31;;;5.93;100.00
25084;BME280;13075;55.682;37.564;2023-02-03T14:58:43;98683.13;;;6.12;100.00
25084;BME280;13075;55.682;37.564;2023-02-03T15:06:44;98694.06;;;5.60;100.00
25084;BME280;13075;55.682;37.564;2023-02-03T15:09:27;98684.59;;;5.73;100.00
25084;BME280;13075;55.682;37.564;2023-02-03T15:11:54;98690.31;;;5.34;100.00
25084;BME280;13075;55.682;37.564;2023-02-03T15:14:25;98689.69;;;5.53;100.00
25084;BME280;13075;55.682;37.564;2023-02-03T15:16:57;98688.66;;;5.90;100.00
25084;BME280;13075;55.682;37.564;2023-02-03T15:19:26;98699.81;;;5.64;100.00
25084;BME280;13075;55.682;37.564;2023-02-03T15:21:53;98686.66;;;5.56;100.00
25084;BME280;13075;55.682;37.564;2023-02-03T15:24:20;98688.34;;;5.42;100.00
25084;BME280;13075;55.682;37.564;2023-02-03T15:26:53;98684.97;;;5.70;100.00